Marysville, Canada
Current Conditions -  °F | °C
As of 9:00 PM on Friday 19 Dec 2014 (Local Time) from CYFC Reporting Station
Clear Clear  
Wind Chill: 15°   Ceiling: Unl
Heat Index: 25°   Visibility: 9mi
Dew Point: 21°   Wind: 9mph
Humidity: 86%   Direction: 330°NNW
Pressure: 30.01"   Gusts: NA
Location:  45.98°N, 66.58°W
Report Text: CYFC 200100Z AUTO 33008KT 9SM CLR M04/M06 A3001 RMK SLP164
Loading
Personal Weather Stations






























Interactive Weather Map New forecast layout! Learn more

10-Day Weather Forecast

Advertisements
Track Severe Weather on mobile